Back to Top
Banner_Quays_at_Mast_2020.jpeg
previous arrow
next arrow

Port Departures Report (AIS)

This report is generated from collected AIS (Automated Identification System) signals from vessels leaving port.

IMO MMSI Class Flag Vessel Name Vessel Type Nav Status Destination Call Sign Latitude Longitude Speed (kts) Course (T) Draught (m) LOA (m) Beam (m) Timestamp
0 227136450 B FR TREZKAO SAILING. - FJ4792 51.6868 -8.50018 6.3 175.2 0 9 4 2026-08-16 11:26:37
0 250014182 A IE LADY CATHERINE PASSENGER. - EIA2647 51.6846 -8.49959 9.4 183.4 0 0 0 2026-08-16 10:44:54
0 250014774 B IE HARPY DREDGING / UNDERWATER Ops. - EIA3240 51.6857 -8.5007 10.8 175.8 0 13 4 2026-08-16 09:51:57
0 232044206 B GB NARRIE Pleasure craft - MMJW9 51.6868 -8.49989 9.9 171.2 0 14 5 2026-08-16 09:32:34
0 250013980 B IE MARITANA Pleasure craft - EIA2446 51.6862 -8.50061 7 182.4 0 12 4 2026-08-16 08:21:06
0 250014774 B IE HARPY DREDGING / UNDERWATER Ops. - EIA3240 51.6941 -8.53493 8.4 318.5 0 13 4 2026-08-16 08:02:05
0 250014774 B IE HARPY DREDGING / UNDERWATER Ops. - EIA3240 51.6851 -8.50072 9.6 183 0 13 4 2026-08-16 07:08:04
0 235092752 B GB CONSTANCE SAILING. - 2FNP7 51.6859 -8.5 5.7 180.2 0 10 2 2026-08-15 21:05:07
0 250014774 B IE HARPY DREDGING / UNDERWATER Ops. - EIA3240 51.6961 -8.53928 14.1 302.9 0 13 4 2026-08-15 18:54:36
0 232022902 - GB TARA SAILING. - MFOE6) 51.6861 -8.50098 3.7 168 0 11 4 2026-08-15 16:11:23
0 250014243 B IE PRIVATEER SAILING. - EIA2708 51.6839 -8.49898 6.3 163.5 0 12 4 2026-08-15 16:04:08
0 232016609 B GB RNLI LIFEBOAT B-909 SAR. - 51.6959 -8.5389 16.3 304.9 0 8 2 2026-08-15 15:37:37
0 250014182 A IE LADY CATHERINE PASSENGER. - EIA2647 51.685 -8.49903 8.9 186.4 0 0 0 2026-08-15 15:10:18
0 232041642 B GB CALAO SAILING. - MLIZ7 51.6863 -8.49984 3.2 183.5 0 14 4 2026-08-15 14:34:18
0 250000041 B IE ALVOR SAILING. - EI8492 51.6866 -8.49971 5.4 175.4 0 10 4 2026-08-15 13:36:34
0 250005179 B IE FREYA SAILING. - EI-TY-4 51.6848 -8.50026 8.4 182.3 0 15 5 2026-08-15 13:16:26
0 250014886 B IE SALUBRIOUS LADY Pleasure craft - EIA3352 51.687 -8.50034 6.3 158.7 0 0 0 2026-08-15 12:07:47
0 205601930 B BE CARIBE Pleasure craft - OP6019 51.685 -8.49983 12.2 181 0 14 4 2026-08-15 11:43:59
0 250014182 A IE LADY CATHERINE PASSENGER. - EIA2647 51.6842 -8.49947 9.7 188.5 0 0 0 2026-08-15 10:44:07
0 232016609 B GB RNLI LIFEBOAT B-909 SAR. - 51.6784 -8.50109 35.5 192.1 0 8 2 2026-08-15 08:31:32